Augusta, WI

12:30 AM CDT on August 28, 2015 (GMT -0500)
RAWS | | Change Station
CLOSE
Current Station
Personal Weather Station
Location: Augusta, WI
Elevation: 970 ft
Nearby Weather Stations

Elev 970 ft 44.70 °N, 91.13 °W | Updated 1 hour ago

Clear
Clear
62.0 °F
Feels Like 62.0 °F
N
3.0
Wind Variable Wind from SSE
Gusts 5.0 mph

Today
High -- | Low -- °F
--% Chance of Precip.
Yesterday
High -- | Low -- °F
Precip. -- in
6:21 AM 7:48 PM
Waxing Gibbous, 96% visible
Pressure 30.01 in
Visibility 10.0 miles
Clouds Clear
Dew Point 60.0 °F
Humidity 93%
Rainfall in
Snow Depth Not available.
UV 0 out of 12
Pollen 9.90 out of 12
Air Quality Not available.
Flu Activity Not available.
METAR KEAU 280456Z AUTO 15003KT 10SM CLR 18/14 A3002 RMK AO2 SLP163 T01780144
Pressure 30.01 in
Visibility 10.0 miles
Clouds Clear
Dew Point 60.0 °F
Humidity 93%
Rainfall in
Snow Depth Not available.
UV 0 out of 12
Pollen 9.90 out of 12
Air Quality Not available.
Flu Activity Not available.
METAR KEAU 280456Z AUTO 15003KT 10SM CLR 18/14 A3002 RMK AO2 SLP163 T01780144

10-Day Weather Forecast

×

Almanac

Astronomy

Aug. 28, 2015 Rise Set
Actual Time
Civil Twilight
Nautical Twilight
Astronomical Twilight
Moon
Length of Visible Light
Length of Day
Tomorrow will be .
, % of the Moon is Illuminated

Today's Extremes

State Highs State Lows

Community

WunderPhotos

Upload Photos

1,850,341 photos uploaded!

WunderBlogs® & News

Nearby

Air Quality

  Air Quality AQ Index Pollutant
Not available.

Snow Depth

Station Depth Elevation

Earthquake Activity

City Distance Mag. Time & Date
Minimum magnitude displayed is 2.5.

Coastal Water Temperatures

Place Temperature

Stations

Nearby Weather Stations

Station Location Temp. Windchill Dew Point Humidity Wind Precip. Elev Updated Type